createdAt,value
2018-09-23T00:01:23.792Z,98747.98
2018-09-23T00:03:35.991Z,98752.18
2018-09-23T00:05:48.266Z,98748.51
2018-09-23T00:08:00.489Z,98745.84
2018-09-23T00:10:12.744Z,98741.92
2018-09-23T00:12:24.963Z,98728.28
2018-09-23T00:14:37.209Z,98731.64
2018-09-23T00:16:49.390Z,98735.36
2018-09-23T00:19:01.583Z,98746.37
2018-09-23T00:21:13.862Z,98742.09
2018-09-23T00:23:26.055Z,98743.23
2018-09-23T00:25:38.318Z,98742.95
2018-09-23T00:27:50.508Z,98744.18
2018-09-23T00:30:02.774Z,98742.27
2018-09-23T00:32:14.946Z,98745.33
2018-09-23T00:34:27.191Z,98744.44
2018-09-23T00:36:39.393Z,98747.28
2018-09-23T00:38:51.593Z,98751.27
2018-09-23T00:41:03.898Z,98744.66
2018-09-23T00:43:16.111Z,98735.55
2018-09-23T00:45:28.395Z,98734.08
2018-09-23T00:47:40.647Z,98725.61
2018-09-23T00:49:52.872Z,98730.38
2018-09-23T00:52:05.159Z,98722.95
2018-09-23T00:54:17.390Z,98713.35
2018-09-23T00:56:29.631Z,98708.08
2018-09-23T00:58:41.794Z,98710.31
2018-09-23T01:00:54.103Z,98702.91
2018-09-23T01:03:06.416Z,98693.97
2018-09-23T01:05:18.666Z,98688.56
2018-09-23T01:07:30.917Z,98683.77
2018-09-23T01:09:43.109Z,98682.27
2018-09-23T01:11:55.354Z,98679.60
2018-09-23T01:14:07.736Z,98680.80
2018-09-23T01:16:19.966Z,98677.53
2018-09-23T01:18:32.134Z,98682.67
2018-09-23T01:20:45.076Z,98682.02
2018-09-23T01:22:57.301Z,98674.75
2018-09-23T01:25:09.499Z,98665.06
2018-09-23T01:27:21.783Z,98657.41
2018-09-23T01:29:33.975Z,98651.25
2018-09-23T01:31:46.204Z,98651.25
2018-09-23T01:33:58.372Z,98644.37
2018-09-23T01:36:10.633Z,98639.98
2018-09-23T01:38:22.872Z,98634.88
2018-09-23T01:40:35.049Z,98640.81
2018-09-23T01:42:47.296Z,98639.23
2018-09-23T01:44:59.462Z,98629.85
2018-09-23T01:47:11.788Z,98630.95
2018-09-23T01:49:24.075Z,98623.35
2018-09-23T01:51:36.292Z,98614.89
2018-09-23T01:53:48.524Z,98625.14
2018-09-23T01:56:00.753Z,98613.34
2018-09-23T01:58:12.927Z,98606.66
2018-09-23T02:00:25.215Z,98604.59
2018-09-23T02:02:37.438Z,98604.05
2018-09-23T02:04:49.668Z,98607.77
2018-09-23T02:07:01.891Z,98597.70
2018-09-23T02:09:14.068Z,98588.30
2018-09-23T02:11:26.251Z,98585.63
2018-09-23T02:13:38.527Z,98581.89
2018-09-23T02:15:50.710Z,98574.72
2018-09-23T02:18:02.927Z,98566.63
2018-09-23T02:20:15.150Z,98560.59
2018-09-23T02:22:27.386Z,98558.72
2018-09-23T02:24:39.564Z,98551.95
2018-09-23T02:26:51.787Z,98551.20
2018-09-23T02:29:04.022Z,98548.06
2018-09-23T02:31:16.279Z,98540.25
2018-09-23T02:33:28.483Z,98536.70
2018-09-23T02:35:40.663Z,98531.02
2018-09-23T02:37:54.081Z,98525.33
2018-09-23T02:40:06.345Z,98529.18
2018-09-23T02:42:18.542Z,98529.54
2018-09-23T02:44:30.872Z,98516.98
2018-09-23T02:46:43.051Z,98518.28
2018-09-23T02:48:55.281Z,98507.96
2018-09-23T02:51:07.449Z,98505.64
2018-09-23T02:53:19.610Z,98496.23
2018-09-23T02:55:31.806Z,98496.44
2018-09-23T02:57:43.975Z,98486.55
2018-09-23T02:59:56.174Z,98476.41
2018-09-23T03:02:08.371Z,98470.25
2018-09-23T03:04:20.600Z,98456.67
2018-09-23T03:06:32.828Z,98459.83
2018-09-23T03:08:45.039Z,98452.95
2018-09-23T03:10:57.310Z,98452.38
2018-09-23T03:13:09.498Z,98446.50
2018-09-23T03:15:21.691Z,98450.48
2018-09-23T03:17:33.864Z,98435.41
2018-09-23T03:19:46.067Z,98433.58
2018-09-23T03:21:58.244Z,98435.59
2018-09-23T03:24:10.452Z,98429.08
2018-09-23T03:26:22.740Z,98429.47
2018-09-23T03:28:34.919Z,98427.51
2018-09-23T03:30:47.130Z,98418.22
2018-09-23T03:32:59.306Z,98415.70
2018-09-23T03:35:11.515Z,98416.25
2018-09-23T03:37:23.691Z,98406.81
2018-09-23T03:39:35.850Z,98405.23
2018-09-23T03:41:48.058Z,98394.45
2018-09-23T03:44:00.267Z,98393.87
2018-09-23T03:46:12.471Z,98393.12
2018-09-23T03:48:24.663Z,98384.16
2018-09-23T03:50:36.881Z,98378.94
2018-09-23T03:52:49.087Z,98379.45
2018-09-23T03:55:01.263Z,98371.28
2018-09-23T03:57:13.455Z,98368.67
2018-09-23T03:59:25.666Z,98355.44
2018-09-23T04:01:37.980Z,98357.69
2018-09-23T04:03:50.138Z,98351.17
2018-09-23T04:06:02.330Z,98346.14
2018-09-23T04:08:14.559Z,98339.98
2018-09-23T04:10:26.766Z,98341.44
2018-09-23T04:12:38.967Z,98343.76
2018-09-23T04:14:51.122Z,98333.95
2018-09-23T04:17:03.343Z,98337.63
2018-09-23T04:19:15.548Z,98328.69
2018-09-23T04:21:27.715Z,98322.79
2018-09-23T04:23:39.902Z,98318.64
2018-09-23T04:25:52.087Z,98324.66
2018-09-23T04:28:04.299Z,98316.77
2018-09-23T04:30:17.620Z,98321.19
2018-09-23T04:32:29.836Z,98312.59
2018-09-23T04:34:42.032Z,98315.69
2018-09-23T04:36:54.227Z,98307.30
2018-09-23T04:39:08.047Z,98309.09
2018-09-23T04:41:20.234Z,98303.88
2018-09-23T04:43:32.420Z,98304.84
2018-09-23T04:45:44.620Z,98303.59
2018-09-23T04:47:56.827Z,98306.34
2018-09-23T04:50:09.027Z,98297.95
2018-09-23T04:52:21.270Z,98295.83
2018-09-23T04:54:33.453Z,98290.56
2018-09-23T04:56:45.675Z,98286.56
2018-09-23T04:58:57.863Z,98288.73
2018-09-23T05:01:10.055Z,98294.18
2018-09-23T05:03:22.255Z,98288.66
2018-09-23T05:05:34.494Z,98285.09
2018-09-23T05:07:46.705Z,98289.36
2018-09-23T05:09:58.945Z,98290.80
2018-09-23T05:12:11.123Z,98285.09
2018-09-23T05:14:23.372Z,98287.97
2018-09-23T05:16:35.618Z,98278.26
2018-09-23T05:18:47.858Z,98272.91
2018-09-23T05:21:00.086Z,98270.55
2018-09-23T05:23:12.306Z,98266.42
2018-09-23T05:25:24.551Z,98271.42
2018-09-23T05:27:36.840Z,98265.63
2018-09-23T05:29:49.068Z,98263.66
2018-09-23T05:32:01.297Z,98263.66
2018-09-23T05:34:13.520Z,98264.36
2018-09-23T05:36:25.751Z,98263.87
2018-09-23T05:38:37.940Z,98265.57
2018-09-23T05:40:50.172Z,98257.89
2018-09-23T05:43:02.415Z,98260.63
2018-09-23T05:45:14.639Z,98263.46
2018-09-23T05:47:26.898Z,98261.61
2018-09-23T05:49:39.107Z,98267.19
2018-09-23T05:51:51.367Z,98260.05
2018-09-23T05:54:03.589Z,98261.13
2018-09-23T05:56:15.833Z,98265.90
2018-09-23T05:58:28.047Z,98263.41
2018-09-23T06:00:43.239Z,98258.91
2018-09-23T06:02:55.474Z,98258.42
2018-09-23T06:05:07.698Z,98247.73
2018-09-23T06:07:19.944Z,98260.70
2018-09-23T06:09:32.167Z,98246.56
2018-09-23T06:11:44.428Z,98247.41
2018-09-23T06:13:56.746Z,98253.34
2018-09-23T06:16:09.002Z,98244.17
2018-09-23T06:18:21.240Z,98239.33
2018-09-23T06:20:33.512Z,98233.61
2018-09-23T06:22:45.830Z,98228.48
2018-09-23T06:24:58.019Z,98235.38
2018-09-23T06:27:10.310Z,98226.71
2018-09-23T06:29:22.563Z,98226.92
2018-09-23T06:31:34.797Z,98223.01
2018-09-23T06:33:47.883Z,98218.71
2018-09-23T06:36:00.116Z,98211.86
2018-09-23T06:38:12.368Z,98212.55
2018-09-23T06:40:24.635Z,98212.79
2018-09-23T06:42:37.002Z,98202.42
2018-09-23T06:44:49.241Z,98196.23
2018-09-23T06:47:01.489Z,98192.36
2018-09-23T06:49:13.744Z,98188.43
2018-09-23T06:51:26.015Z,98193.76
2018-09-23T06:53:38.288Z,98194.44
2018-09-23T06:55:50.545Z,98191.05
2018-09-23T06:58:02.823Z,98197.42
2018-09-23T07:00:15.051Z,98193.43
2018-09-23T07:02:27.264Z,98192.97
2018-09-23T07:04:39.550Z,98198.05
2018-09-23T07:06:51.766Z,98197.71
2018-09-23T07:09:05.094Z,98189.75
2018-09-23T07:11:17.351Z,98207.66
2018-09-23T07:13:29.568Z,98194.02
2018-09-23T07:15:41.819Z,98203.81
2018-09-23T07:17:54.035Z,98198.71
2018-09-23T07:20:06.348Z,98195.70
2018-09-23T07:22:18.614Z,98204.20
2018-09-23T07:24:30.896Z,98196.25
2018-09-23T07:26:43.122Z,98196.22
2018-09-23T07:28:55.451Z,98191.98
2018-09-23T07:31:07.794Z,98185.41
2018-09-23T07:33:20.071Z,98188.18
2018-09-23T07:35:32.483Z,98181.40
2018-09-23T07:37:44.702Z,98184.90
2018-09-23T07:39:56.966Z,98181.16
2018-09-23T07:42:09.255Z,98176.80
2018-09-23T07:44:21.482Z,98178.16
2018-09-23T07:46:33.816Z,98174.42
2018-09-23T07:48:46.021Z,98185.39
2018-09-23T07:50:58.241Z,98159.71
2018-09-23T07:53:10.588Z,98161.75
2018-09-23T07:55:22.824Z,98163.59
2018-09-23T07:57:35.183Z,98159.91
2018-09-23T07:59:47.463Z,98160.66
2018-09-23T08:01:59.713Z,98170.45
2018-09-23T08:04:12.000Z,98159.23
2018-09-23T08:06:26.122Z,98168.72
2018-09-23T08:08:38.364Z,98153.88
2018-09-23T08:10:50.700Z,98156.93
2018-09-23T08:13:03.220Z,98163.33
2018-09-23T08:15:15.390Z,98170.55
2018-09-23T08:17:27.617Z,98167.18
2018-09-23T08:19:39.950Z,98165.31
2018-09-23T08:21:54.178Z,98168.05
2018-09-23T08:24:06.556Z,98166.52
2018-09-23T08:26:18.819Z,98172.23
2018-09-23T08:28:31.042Z,98164.92
2018-09-23T08:30:43.319Z,98174.20
2018-09-23T08:32:55.617Z,98171.97
2018-09-23T08:35:07.871Z,98172.16
2018-09-23T08:37:22.989Z,98157.30
2018-09-23T08:39:35.178Z,98158.80
2018-09-23T08:41:47.517Z,98158.17
2018-09-23T08:43:59.733Z,98159.62
2018-09-23T08:46:11.961Z,98163.70
2018-09-23T08:48:24.363Z,98168.62
2018-09-23T08:50:40.693Z,98163.99
2018-09-23T08:52:52.991Z,98165.23
2018-09-23T08:55:05.233Z,98156.48
2018-09-23T08:57:17.496Z,98151.83
2018-09-23T08:59:30.626Z,98157.39
2018-09-23T09:01:42.899Z,98164.11
2018-09-23T09:03:55.136Z,98165.39
2018-09-23T09:06:07.611Z,98163.53
2018-09-23T09:08:21.747Z,98163.98
2018-09-23T09:10:34.184Z,98162.61
2018-09-23T09:12:46.439Z,98165.22
2018-09-23T09:14:58.659Z,98151.66
2018-09-23T09:17:10.917Z,98155.89
2018-09-23T09:19:23.119Z,98161.95
2018-09-23T09:21:35.412Z,98147.92
2018-09-23T09:23:47.651Z,98148.72
2018-09-23T09:26:00.975Z,98155.47
2018-09-23T09:28:13.193Z,98152.84
2018-09-23T09:30:25.467Z,98148.55
2018-09-23T09:32:37.691Z,98142.13
2018-09-23T09:34:49.926Z,98156.80
2018-09-23T09:37:02.167Z,98148.39
2018-09-23T09:39:14.399Z,98138.03
2018-09-23T09:41:26.639Z,98137.41
2018-09-23T09:43:39.008Z,98130.42
2018-09-23T09:45:51.273Z,98139.02
2018-09-23T09:48:03.536Z,98127.46
2018-09-23T09:50:15.795Z,98125.81
2018-09-23T09:52:28.035Z,98122.70
2018-09-23T09:54:40.255Z,98120.42
2018-09-23T09:56:52.487Z,98116.03
2018-09-23T09:59:04.851Z,98109.78
2018-09-23T10:01:17.090Z,98113.66
2018-09-23T10:03:29.374Z,98100.67
2018-09-23T10:05:41.648Z,98103.47
2018-09-23T10:07:53.866Z,98110.27
2018-09-23T10:10:06.170Z,98102.73
2018-09-23T10:12:18.399Z,98097.48
2018-09-23T10:14:30.646Z,98088.25
2018-09-23T10:16:42.921Z,98089.77
2018-09-23T10:18:55.220Z,98091.11
2018-09-23T10:21:07.447Z,98085.71
2018-09-23T10:23:19.811Z,98082.41
2018-09-23T10:25:31.972Z,98074.03
2018-09-23T10:27:44.158Z,98085.56
2018-09-23T10:29:56.396Z,98079.33
2018-09-23T10:32:08.637Z,98070.91
2018-09-23T10:34:20.894Z,98061.75
2018-09-23T10:36:33.166Z,98066.05
2018-09-23T10:38:45.448Z,98063.44
2018-09-23T10:40:57.719Z,98048.25
2018-09-23T10:43:09.964Z,98050.89
2018-09-23T10:45:22.202Z,98038.34
2018-09-23T10:47:34.480Z,98044.95
2018-09-23T10:49:46.668Z,98036.70
2018-09-23T10:51:58.932Z,98031.22
2018-09-23T10:54:15.115Z,98029.07
2018-09-23T10:56:28.420Z,98031.06
2018-09-23T10:58:40.743Z,98031.23
2018-09-23T11:00:53.920Z,98023.11
2018-09-23T11:03:07.299Z,98009.23
2018-09-23T11:05:19.589Z,97998.69
2018-09-23T11:07:32.880Z,98004.96
2018-09-23T11:09:45.166Z,97997.66
2018-09-23T11:11:58.489Z,97994.69
2018-09-23T11:14:10.974Z,98001.45
2018-09-23T11:16:23.220Z,97984.73
2018-09-23T11:18:35.567Z,97984.55
2018-09-23T11:20:47.787Z,97978.72
2018-09-23T11:23:00.090Z,97966.14
2018-09-23T11:25:12.307Z,97961.83
2018-09-23T11:27:24.517Z,97962.78
2018-09-23T11:29:36.812Z,97959.90
2018-09-23T11:31:49.085Z,97961.02
2018-09-23T11:34:01.600Z,97964.17
2018-09-23T11:36:14.135Z,97951.91
2018-09-23T11:38:26.427Z,97950.53
2018-09-23T11:40:38.675Z,97945.70
2018-09-23T11:42:50.920Z,97938.83
2018-09-23T11:45:03.317Z,97928.31
2018-09-23T11:47:22.073Z,97931.38
2018-09-23T11:49:34.344Z,97943.38
2018-09-23T11:51:46.678Z,97925.38
2018-09-23T11:53:58.912Z,97918.92
2018-09-23T11:56:11.603Z,97928.63
2018-09-23T11:58:23.872Z,97909.91
2018-09-23T12:00:37.050Z,97900.83
2018-09-23T12:02:53.794Z,97902.81
2018-09-23T12:05:08.153Z,97912.44
2018-09-23T12:07:20.726Z,97896.89
2018-09-23T12:09:32.980Z,97900.21
2018-09-23T12:11:45.259Z,97911.59
2018-09-23T12:13:57.485Z,97901.94
2018-09-23T12:16:09.727Z,97907.90
2018-09-23T12:18:21.949Z,97905.61
2018-09-23T12:20:34.220Z,97898.78
2018-09-23T12:22:46.445Z,97884.59
2018-09-23T12:24:58.673Z,97890.00
2018-09-23T12:27:11.000Z,97885.06
2018-09-23T12:29:23.279Z,97881.79
2018-09-23T12:31:35.551Z,97875.58
2018-09-23T12:33:47.835Z,97870.72
2018-09-23T12:36:04.248Z,97863.16
2018-09-23T12:38:16.523Z,97863.70
2018-09-23T12:40:28.836Z,97852.58
2018-09-23T12:42:41.096Z,97853.70
2018-09-23T12:44:53.326Z,97852.21
2018-09-23T12:47:05.558Z,97843.44
2018-09-23T12:49:17.867Z,97828.39
2018-09-23T12:51:30.128Z,97822.07
2018-09-23T12:53:42.438Z,97826.87
2018-09-23T12:55:54.709Z,97812.11
2018-09-23T12:58:06.946Z,97810.89
2018-09-23T13:00:19.267Z,97810.78
2018-09-23T13:02:31.502Z,97798.58
2018-09-23T13:04:45.845Z,97795.45
2018-09-23T13:06:58.271Z,97797.42
2018-09-23T13:09:13.516Z,97789.84
2018-09-23T13:11:25.791Z,97779.66
2018-09-23T13:13:38.041Z,97781.50
2018-09-23T13:15:50.299Z,97765.06
2018-09-23T13:18:02.634Z,97767.34
2018-09-23T13:20:14.915Z,97744.92
2018-09-23T13:22:28.194Z,97748.61
2018-09-23T13:24:40.455Z,97726.67
2018-09-23T13:26:52.746Z,97727.34
2018-09-23T13:29:05.291Z,97727.98
2018-09-23T13:31:17.899Z,97708.88
2018-09-23T13:33:30.256Z,97681.59
2018-09-23T13:35:42.498Z,97691.99
2018-09-23T13:37:54.723Z,97692.50
2018-09-23T13:40:07.126Z,97671.34
2018-09-23T13:42:21.340Z,97675.58
2018-09-23T13:44:33.676Z,97664.52
2018-09-23T13:46:45.991Z,97673.59
2018-09-23T13:48:58.287Z,97664.42
2018-09-23T13:51:10.596Z,97657.77
2018-09-23T13:53:22.816Z,97665.29
2018-09-23T13:55:35.106Z,97656.55
2018-09-23T13:57:47.338Z,97643.80
2018-09-23T14:00:00.446Z,97627.36
2018-09-23T14:02:12.760Z,97637.73
2018-09-23T14:04:25.011Z,97628.15
2018-09-23T14:06:37.326Z,97626.65
2018-09-23T14:08:49.544Z,97606.10
2018-09-23T14:11:02.854Z,97610.42
2018-09-23T14:13:15.071Z,97599.47
2018-09-23T14:15:27.302Z,97599.47
2018-09-23T14:17:40.534Z,97588.31
2018-09-23T14:20:00.648Z,97598.42
2018-09-23T14:22:12.906Z,97598.50
2018-09-23T14:24:25.132Z,97589.27
2018-09-23T14:26:37.392Z,97577.61
2018-09-23T14:28:49.659Z,97605.89
2018-09-23T14:31:01.904Z,97579.44
2018-09-23T14:33:14.178Z,97562.37
2018-09-23T14:35:26.453Z,97557.95
2018-09-23T14:37:38.704Z,97544.95
2018-09-23T14:39:50.968Z,97541.48
2018-09-23T14:42:03.314Z,97534.56
2018-09-23T14:44:15.562Z,97545.38
2018-09-23T14:46:27.763Z,97545.89
2018-09-23T14:48:40.051Z,97551.50
2018-09-23T14:50:52.309Z,97527.27
2018-09-23T14:53:04.610Z,97533.52
2018-09-23T14:55:18.888Z,97503.17
2018-09-23T14:57:31.237Z,97490.73
2018-09-23T14:59:43.526Z,97495.86
2018-09-23T15:01:55.791Z,97475.44
2018-09-23T15:04:08.115Z,97462.86
2018-09-23T15:06:20.408Z,97488.28
2018-09-23T15:08:32.727Z,97481.83
2018-09-23T15:10:45.278Z,97473.53
2018-09-23T15:12:57.623Z,97468.56
2018-09-23T15:15:09.900Z,97473.48
2018-09-23T15:17:22.183Z,97482.25
2018-09-23T15:19:34.437Z,97458.70
2018-09-23T15:21:46.699Z,97472.16
2018-09-23T15:23:59.034Z,97462.77
2018-09-23T15:26:11.348Z,97449.50
2018-09-23T15:28:24.638Z,97458.28
2018-09-23T15:30:36.914Z,97440.06
2018-09-23T15:32:49.176Z,97430.78
2018-09-23T15:35:01.468Z,97424.60
2018-09-23T15:37:13.735Z,97429.39
2018-09-23T15:39:26.018Z,97415.86
2018-09-23T15:41:38.357Z,97435.85
2018-09-23T15:43:50.627Z,97424.55
2018-09-23T15:46:03.911Z,97401.98
2018-09-23T15:48:16.242Z,97410.77
2018-09-23T15:50:28.551Z,97400.36
2018-09-23T15:52:40.910Z,97416.46
2018-09-23T15:54:53.201Z,97415.34
2018-09-23T15:57:07.395Z,97396.77
2018-09-23T15:59:19.698Z,97408.41
2018-09-23T16:01:32.129Z,97385.28
2018-09-23T16:03:44.466Z,97390.59
2018-09-23T16:05:56.782Z,97402.53
2018-09-23T16:08:08.999Z,97414.47
2018-09-23T16:10:21.483Z,97413.20
2018-09-23T16:12:33.696Z,97391.86
2018-09-23T16:14:45.957Z,97406.62
2018-09-23T16:16:58.369Z,97406.90
2018-09-23T16:19:10.679Z,97397.70
2018-09-23T16:21:22.937Z,97399.12
2018-09-23T16:23:35.229Z,97415.94
2018-09-23T16:25:47.569Z,97406.70
2018-09-23T16:27:59.808Z,97445.41
2018-09-23T16:30:12.020Z,97434.39
2018-09-23T16:32:24.356Z,97443.48
2018-09-23T16:34:36.678Z,97457.73
2018-09-23T16:36:48.910Z,97462.94
2018-09-23T16:39:03.923Z,97509.16
2018-09-23T16:41:20.801Z,97660.78
2018-09-23T16:43:34.789Z,97687.83
2018-09-23T16:45:50.897Z,97714.58
2018-09-23T16:48:06.055Z,97689.31
2018-09-23T16:50:20.346Z,97689.54
2018-09-23T16:52:35.509Z,97675.86
2018-09-23T16:54:50.105Z,97687.84
2018-09-23T16:57:07.981Z,97690.23
2018-09-23T16:59:23.591Z,97675.09
2018-09-23T17:01:35.893Z,97691.06
2018-09-23T17:03:48.195Z,97720.30
2018-09-23T17:06:00.516Z,97743.38
2018-09-23T17:08:15.748Z,97679.46
2018-09-23T17:10:28.094Z,97689.22
2018-09-23T17:12:40.522Z,97675.39
2018-09-23T17:14:52.781Z,97683.88
2018-09-23T17:17:05.102Z,97685.40
2018-09-23T17:19:17.485Z,97679.74
2018-09-23T17:21:29.783Z,97698.34
2018-09-23T17:23:42.088Z,97735.05
2018-09-23T17:25:54.495Z,97742.38
2018-09-23T17:28:06.830Z,97735.61
2018-09-23T17:30:19.182Z,97719.28
2018-09-23T17:32:31.470Z,97714.52
2018-09-23T17:34:43.763Z,97722.60
2018-09-23T17:36:56.165Z,97742.61
2018-09-23T17:39:09.526Z,97769.66
2018-09-23T17:41:21.786Z,97769.00
2018-09-23T17:43:34.072Z,97742.40
2018-09-23T17:45:46.379Z,97743.71
2018-09-23T17:47:58.710Z,97736.05
2018-09-23T17:50:11.020Z,97726.05
2018-09-23T17:52:23.322Z,97712.19
2018-09-23T17:54:35.643Z,97716.41
2018-09-23T17:56:47.955Z,97751.75
2018-09-23T17:59:00.247Z,97786.28
2018-09-23T18:01:12.522Z,97781.31
2018-09-23T18:03:24.828Z,97784.09
2018-09-23T18:05:37.112Z,97775.03
2018-09-23T18:07:49.431Z,97771.47
2018-09-23T18:10:01.737Z,97763.23
2018-09-23T18:12:14.109Z,97779.95
2018-09-23T18:14:26.379Z,97819.43
2018-09-23T18:16:38.670Z,97812.87
2018-09-23T18:18:51.094Z,97833.72
2018-09-23T18:21:03.343Z,97843.87
2018-09-23T18:23:15.641Z,97835.09
2018-09-23T18:25:27.891Z,97832.44
2018-09-23T18:27:40.205Z,97828.93
2018-09-23T18:29:52.547Z,97868.03
2018-09-23T18:32:04.831Z,97900.19
2018-09-23T18:34:17.067Z,97920.66
2018-09-23T18:36:29.451Z,97985.25
2018-09-23T18:38:41.773Z,98033.84
2018-09-23T18:40:54.105Z,98056.36
2018-09-23T18:43:06.374Z,98075.42
2018-09-23T18:45:18.681Z,98091.56
2018-09-23T18:47:30.972Z,98111.19
2018-09-23T18:49:43.302Z,98147.08
2018-09-23T18:51:55.565Z,98157.30
2018-09-23T18:54:13.425Z,98145.42
2018-09-23T18:56:25.808Z,98139.24
2018-09-23T18:58:38.078Z,98172.50
2018-09-23T19:00:50.491Z,98185.19
2018-09-23T19:03:02.855Z,98215.42
2018-09-23T19:05:15.160Z,98212.91
2018-09-23T19:07:27.439Z,98213.61
2018-09-23T19:09:39.697Z,98213.97
2018-09-23T19:11:52.128Z,98212.59
2018-09-23T19:14:04.395Z,98196.00
2018-09-23T19:16:22.491Z,98175.20
2018-09-23T19:18:34.748Z,98197.23
2018-09-23T19:20:47.116Z,98243.75
2018-09-23T19:23:04.934Z,98278.13
2018-09-23T19:25:17.281Z,98280.81
2018-09-23T19:27:29.571Z,98274.15
2018-09-23T19:29:41.807Z,98271.38
2018-09-23T19:31:54.144Z,98264.76
2018-09-23T19:34:06.411Z,98281.02
2018-09-23T19:36:18.735Z,98282.27
2018-09-23T19:40:42.801Z,98301.59
2018-09-23T19:42:55.060Z,98310.79
2018-09-23T19:45:07.313Z,98361.05
2018-09-23T19:47:19.793Z,98392.58
2018-09-23T19:49:32.047Z,98434.23
2018-09-23T19:51:44.352Z,98439.69
2018-09-23T19:53:56.595Z,98474.21
2018-09-23T19:56:08.860Z,98429.89
2018-09-23T19:58:21.128Z,98446.12
2018-09-23T20:00:33.408Z,98444.86
2018-09-23T20:02:45.667Z,98435.38
2018-09-23T20:04:57.975Z,98454.19
2018-09-23T20:07:10.287Z,98465.48
2018-09-23T20:09:22.558Z,98463.27
2018-09-23T20:11:34.855Z,98466.78
2018-09-23T20:13:47.141Z,98457.46
2018-09-23T20:15:59.403Z,98451.61
2018-09-23T20:18:11.643Z,98464.65
2018-09-23T20:20:23.914Z,98469.39
2018-09-23T20:22:36.200Z,98458.12
2018-09-23T20:24:48.467Z,98450.27
2018-09-23T20:27:00.720Z,98428.19
2018-09-23T20:29:12.995Z,98458.95
2018-09-23T20:31:25.236Z,98476.63
2018-09-23T20:33:37.531Z,98500.03
2018-09-23T20:35:49.869Z,98516.97
2018-09-23T20:38:02.095Z,98527.75
2018-09-23T20:40:14.377Z,98537.87
2018-09-23T20:42:26.669Z,98558.83
2018-09-23T20:44:38.955Z,98560.33
2018-09-23T20:46:51.656Z,98575.59
2018-09-23T20:49:04.023Z,98602.20
2018-09-23T20:51:16.304Z,98616.28
2018-09-23T20:53:28.580Z,98622.80
2018-09-23T20:55:40.864Z,98631.27
2018-09-23T20:57:53.125Z,98662.53
2018-09-23T21:00:05.492Z,98688.77
2018-09-23T21:02:17.743Z,98698.61
2018-09-23T21:04:30.079Z,98707.19
2018-09-23T21:06:42.364Z,98711.46
2018-09-23T21:08:54.590Z,98727.27
2018-09-23T21:11:06.936Z,98728.02
2018-09-23T21:13:19.207Z,98719.19
2018-09-23T21:15:31.484Z,98714.33
2018-09-23T21:17:43.699Z,98705.94
2018-09-23T21:19:55.927Z,98713.49
2018-09-23T21:22:08.146Z,98715.45
2018-09-23T21:24:20.338Z,98718.41
2018-09-23T21:26:32.611Z,98714.97
2018-09-23T21:28:44.836Z,98721.37
2018-09-23T21:30:57.129Z,98724.57
2018-09-23T21:33:09.341Z,98730.67
2018-09-23T21:35:21.594Z,98728.34
2018-09-23T21:37:33.843Z,98743.20
2018-09-23T21:39:46.049Z,98755.77
2018-09-23T21:41:58.282Z,98758.61
2018-09-23T21:44:10.584Z,98770.27
2018-09-23T21:46:22.809Z,98775.70
2018-09-23T21:48:35.059Z,98785.92
2018-09-23T21:50:47.343Z,98785.75
2018-09-23T21:52:59.580Z,98784.92
2018-09-23T21:55:11.827Z,98797.17
2018-09-23T21:57:24.147Z,98798.47
2018-09-23T21:59:36.383Z,98806.09
2018-09-23T22:01:48.628Z,98811.02
2018-09-23T22:04:01.011Z,98819.94
2018-09-23T22:06:13.245Z,98819.94
2018-09-23T22:08:25.498Z,98826.61
2018-09-23T22:10:37.761Z,98829.48
2018-09-23T22:12:50.002Z,98843.16
2018-09-23T22:15:02.333Z,98845.73
2018-09-23T22:17:14.527Z,98849.36
2018-09-23T22:19:26.763Z,98860.93
2018-09-23T22:21:38.989Z,98864.06
2018-09-23T22:23:51.229Z,98876.75
2018-09-23T22:26:03.427Z,98892.20
2018-09-23T22:28:15.640Z,98902.46
2018-09-23T22:30:27.831Z,98909.34
2018-09-23T22:32:40.035Z,98917.98
2018-09-23T22:34:58.214Z,98928.07
2018-09-23T22:37:10.415Z,98935.11
2018-09-23T22:39:22.667Z,98942.39
2018-09-23T22:41:34.884Z,98954.73
2018-09-23T22:43:47.086Z,98971.81
2018-09-23T22:45:59.289Z,98980.77
2018-09-23T22:48:11.559Z,99004.19
2018-09-23T22:50:23.996Z,99008.56
2018-09-23T22:52:36.188Z,99017.98
2018-09-23T22:54:48.439Z,99023.50
2018-09-23T22:57:00.711Z,99028.86
2018-09-23T22:59:12.928Z,99032.23
2018-09-23T23:01:25.128Z,99044.94
2018-09-23T23:03:37.335Z,99050.45
2018-09-23T23:05:49.641Z,99057.49
2018-09-23T23:08:01.882Z,99066.23
2018-09-23T23:10:14.133Z,99068.00
2018-09-23T23:12:26.326Z,99084.14
2018-09-23T23:14:38.582Z,99087.95
2018-09-23T23:16:50.783Z,99094.17
2018-09-23T23:19:03.002Z,99103.34
2018-09-23T23:21:15.216Z,99111.94
2018-09-23T23:23:27.471Z,99115.38
2018-09-23T23:25:39.725Z,99120.20
2018-09-23T23:27:51.917Z,99132.29
2018-09-23T23:30:04.264Z,99142.55
2018-09-23T23:32:16.480Z,99155.02
2018-09-23T23:34:28.743Z,99160.69
2018-09-23T23:36:40.955Z,99164.36
2018-09-23T23:38:53.181Z,99171.24
2018-09-23T23:41:05.425Z,99177.84
2018-09-23T23:43:17.616Z,99184.64
2018-09-23T23:45:29.843Z,99191.61
2018-09-23T23:47:42.060Z,99194.22
2018-09-23T23:49:54.258Z,99199.88
2018-09-23T23:52:06.511Z,99210.20
2018-09-23T23:54:18.723Z,99222.41
2018-09-23T23:56:30.967Z,99218.56
2018-09-23T23:58:43.162Z,99226.52
